createdAt,value
2018-03-28T00:00:02.878Z,5.00
2018-03-28T00:05:05.416Z,5.00
2018-03-28T00:10:07.965Z,5.00
2018-03-28T00:15:10.507Z,4.90
2018-03-28T00:20:13.038Z,4.90
2018-03-28T00:25:15.574Z,4.90
2018-03-28T00:30:18.108Z,4.90
2018-03-28T00:35:20.642Z,4.90
2018-03-28T00:40:23.177Z,4.90
2018-03-28T00:45:25.726Z,4.80
2018-03-28T00:50:28.257Z,4.80
2018-03-28T00:55:30.802Z,4.80
2018-03-28T01:00:33.326Z,4.70
2018-03-28T01:05:35.890Z,4.70
2018-03-28T01:10:38.434Z,4.70
2018-03-28T01:15:40.962Z,4.70
2018-03-28T01:20:43.527Z,4.70
2018-03-28T01:25:46.057Z,4.60
2018-03-28T01:30:48.590Z,4.60
2018-03-28T01:35:51.125Z,4.50
2018-03-28T01:40:53.671Z,4.50
2018-03-28T01:45:56.222Z,4.50
2018-03-28T01:50:59.530Z,4.50
2018-03-28T01:56:02.856Z,4.50
2018-03-28T02:01:05.403Z,4.50
2018-03-28T02:06:07.937Z,4.50
2018-03-28T02:11:11.235Z,4.50
2018-03-28T02:16:13.766Z,4.50
2018-03-28T02:21:16.298Z,4.40
2018-03-28T02:26:18.845Z,4.50
2018-03-28T02:31:22.152Z,4.40
2018-03-28T02:36:24.692Z,4.40
2018-03-28T02:41:27.227Z,4.40
2018-03-28T02:46:29.753Z,4.40
2018-03-28T02:51:32.294Z,4.40
2018-03-28T02:56:34.844Z,4.40
2018-03-28T03:01:37.386Z,4.40
2018-03-28T03:06:39.925Z,4.40
2018-03-28T03:11:42.470Z,4.40
2018-03-28T03:16:45.010Z,4.40
2018-03-28T03:21:47.558Z,4.40
2018-03-28T03:26:50.091Z,4.40
2018-03-28T03:31:52.635Z,4.40
2018-03-28T03:36:55.204Z,4.40
2018-03-28T03:41:57.750Z,4.40
2018-03-28T03:47:00.294Z,4.40
2018-03-28T03:52:02.831Z,4.40
2018-03-28T03:57:05.403Z,4.40
2018-03-28T04:02:07.898Z,4.30
2018-03-28T04:07:10.434Z,4.30
2018-03-28T04:12:12.966Z,4.30
2018-03-28T04:17:15.506Z,4.30
2018-03-28T04:22:18.048Z,4.30
2018-03-28T04:27:20.585Z,4.20
2018-03-28T04:32:23.118Z,4.20
2018-03-28T04:37:26.418Z,4.20
2018-03-28T04:42:28.938Z,4.20
2018-03-28T04:47:32.239Z,4.20
2018-03-28T04:52:34.785Z,4.20
2018-03-28T04:57:37.318Z,4.20
2018-03-28T05:02:39.853Z,4.20
2018-03-28T05:07:42.376Z,4.20
2018-03-28T05:12:44.911Z,4.20
2018-03-28T05:17:47.458Z,4.20
2018-03-28T05:22:49.994Z,4.20
2018-03-28T05:27:52.535Z,4.20
2018-03-28T05:32:55.063Z,4.20
2018-03-28T05:37:57.602Z,4.20
2018-03-28T05:43:00.133Z,4.20
2018-03-28T05:48:02.678Z,4.20
2018-03-28T05:53:05.220Z,4.20
2018-03-28T05:58:07.770Z,4.20
2018-03-28T06:03:10.326Z,4.20
2018-03-28T06:08:12.847Z,4.20
2018-03-28T06:13:15.394Z,4.10
2018-03-28T06:18:17.938Z,4.10
2018-03-28T06:23:20.515Z,4.10
2018-03-28T06:28:23.045Z,4.10
2018-03-28T06:33:25.590Z,4.20
2018-03-28T06:38:28.146Z,4.20
2018-03-28T06:43:30.685Z,4.10
2018-03-28T06:48:33.222Z,4.10
2018-03-28T06:53:35.799Z,4.10
2018-03-28T06:58:38.290Z,4.10
2018-03-28T07:03:40.842Z,4.20
2018-03-28T07:08:43.382Z,4.20
2018-03-28T07:13:45.921Z,4.20
2018-03-28T07:18:48.449Z,4.20
2018-03-28T07:23:50.987Z,4.20
2018-03-28T07:28:53.517Z,4.20
2018-03-28T07:33:56.051Z,4.30
2018-03-28T07:38:58.583Z,4.30
2018-03-28T07:44:01.112Z,4.30
2018-03-28T07:49:03.651Z,4.30
2018-03-28T07:54:06.182Z,4.30
2018-03-28T07:59:08.731Z,4.30
2018-03-28T08:04:11.282Z,4.30
2018-03-28T08:09:13.806Z,4.30
2018-03-28T08:14:16.348Z,4.30
2018-03-28T08:19:18.897Z,4.30
2018-03-28T08:24:21.433Z,4.30
2018-03-28T08:29:23.975Z,4.40
2018-03-28T08:34:26.514Z,4.40
2018-03-28T08:39:29.045Z,4.50
2018-03-28T08:44:31.582Z,4.40
2018-03-28T08:49:34.115Z,4.40
2018-03-28T08:54:36.653Z,4.50
2018-03-28T08:59:39.186Z,4.50
2018-03-28T09:04:41.722Z,4.50
2018-03-28T09:09:44.258Z,4.50
2018-03-28T09:14:47.561Z,4.60
2018-03-28T09:19:50.098Z,4.60
2018-03-28T09:24:52.634Z,4.60
2018-03-28T09:29:55.174Z,4.70
2018-03-28T09:34:57.721Z,4.80
2018-03-28T09:40:00.246Z,4.90
2018-03-28T09:45:02.790Z,5.00
2018-03-28T09:50:05.313Z,5.10
2018-03-28T09:55:07.837Z,5.10
2018-03-28T10:00:10.378Z,5.20
2018-03-28T10:05:12.910Z,5.20
2018-03-28T10:10:15.459Z,5.20
2018-03-28T10:15:18.010Z,5.30
2018-03-28T10:20:20.554Z,5.40
2018-03-28T10:25:23.853Z,5.50
2018-03-28T10:30:26.441Z,5.50
2018-03-28T10:35:28.976Z,5.50
2018-03-28T10:40:31.515Z,5.60
2018-03-28T10:45:34.056Z,5.70
2018-03-28T10:50:36.597Z,5.70
2018-03-28T10:55:39.130Z,5.70
2018-03-28T11:00:41.670Z,5.80
2018-03-28T11:05:44.205Z,5.90
2018-03-28T11:10:46.751Z,6.00
2018-03-28T11:15:49.294Z,6.00
2018-03-28T11:20:52.013Z,6.10
2018-03-28T11:25:54.563Z,6.20
2018-03-28T11:30:57.874Z,6.30
2018-03-28T11:36:00.410Z,6.20
2018-03-28T11:41:02.952Z,6.30
2018-03-28T11:46:05.482Z,6.30
2018-03-28T11:51:08.038Z,6.30
2018-03-28T11:56:10.570Z,6.30
2018-03-28T12:01:17.678Z,6.50
2018-03-28T12:06:20.302Z,6.50
2018-03-28T12:11:22.907Z,6.60
2018-03-28T12:16:25.442Z,6.70
2018-03-28T12:21:27.973Z,6.80
2018-03-28T12:26:31.281Z,7.10
2018-03-28T12:31:34.598Z,7.20
2018-03-28T12:36:37.133Z,7.20
2018-03-28T12:41:39.683Z,7.40
2018-03-28T12:46:42.190Z,7.60
2018-03-28T12:51:44.738Z,7.80
2018-03-28T12:56:47.269Z,8.00
2018-03-28T13:01:49.815Z,8.20
2018-03-28T13:06:52.345Z,8.30
2018-03-28T13:11:54.885Z,8.40
2018-03-28T13:16:58.213Z,8.60
2018-03-28T13:22:00.754Z,8.60
2018-03-28T13:27:03.303Z,8.70
2018-03-28T13:32:05.837Z,8.80
2018-03-28T13:37:08.370Z,8.90
2018-03-28T13:42:10.910Z,9.00
2018-03-28T13:47:13.667Z,9.10
2018-03-28T13:52:16.206Z,9.20
2018-03-28T13:57:18.737Z,9.30
2018-03-28T14:02:21.270Z,9.40
2018-03-28T14:07:23.806Z,9.40
2018-03-28T14:12:26.350Z,9.40
2018-03-28T14:17:28.886Z,9.50
2018-03-28T14:22:31.428Z,9.50
2018-03-28T14:27:33.957Z,9.50
2018-03-28T14:32:36.503Z,9.40
2018-03-28T14:37:39.037Z,9.50
2018-03-28T14:42:41.573Z,9.50
2018-03-28T14:47:44.116Z,9.50
2018-03-28T14:52:46.665Z,9.50
2018-03-28T14:57:49.264Z,9.60
2018-03-28T15:02:51.791Z,9.60
2018-03-28T15:07:54.329Z,9.60
2018-03-28T15:12:56.870Z,9.60
2018-03-28T15:17:59.405Z,9.60
2018-03-28T15:23:01.939Z,9.60
2018-03-28T15:28:04.485Z,9.60
2018-03-28T15:33:07.028Z,9.60
2018-03-28T15:38:09.555Z,9.60
2018-03-28T15:43:12.863Z,9.60
2018-03-28T15:48:15.402Z,9.60
2018-03-28T15:53:19.795Z,9.60
2018-03-28T15:58:22.330Z,9.60
2018-03-28T16:03:24.853Z,9.60
2018-03-28T16:08:27.375Z,9.50
2018-03-28T16:13:29.905Z,9.50
2018-03-28T16:18:32.447Z,9.50
2018-03-28T16:23:34.991Z,9.50
2018-03-28T16:28:37.542Z,9.50
2018-03-28T16:33:40.078Z,9.40
2018-03-28T16:38:42.626Z,9.40
2018-03-28T16:43:45.187Z,9.40
2018-03-28T16:48:47.722Z,9.30
2018-03-28T16:53:50.269Z,9.30
2018-03-28T16:58:52.801Z,9.30
2018-03-28T17:03:56.093Z,9.20
2018-03-28T17:08:58.637Z,9.20
2018-03-28T17:14:01.222Z,9.20
2018-03-28T17:19:03.738Z,9.10
2018-03-28T17:24:06.258Z,9.10
2018-03-28T17:29:08.785Z,9.00
2018-03-28T17:34:11.333Z,9.00
2018-03-28T17:39:13.919Z,9.00
2018-03-28T17:44:16.462Z,9.00
2018-03-28T17:49:19.001Z,8.90
2018-03-28T17:54:21.549Z,8.90
2018-03-28T17:59:24.098Z,8.80
2018-03-28T18:04:26.640Z,8.80
2018-03-28T18:09:29.194Z,8.80
2018-03-28T18:14:31.741Z,8.80
2018-03-28T18:19:34.286Z,8.70
2018-03-28T18:24:36.842Z,8.70
2018-03-28T18:29:39.396Z,8.70
2018-03-28T18:34:41.945Z,8.70
2018-03-28T18:39:44.481Z,8.70
2018-03-28T18:44:47.041Z,8.70
2018-03-28T18:49:49.602Z,8.70
2018-03-28T18:54:52.387Z,8.70
2018-03-28T18:59:55.553Z,8.60
2018-03-28T19:04:58.089Z,8.60
2018-03-28T19:10:02.315Z,8.60
2018-03-28T19:15:05.701Z,8.60
2018-03-28T19:20:08.247Z,8.70
2018-03-28T19:25:11.577Z,8.70
2018-03-28T19:30:14.111Z,8.70
2018-03-28T19:35:16.648Z,8.70
2018-03-28T19:40:19.193Z,8.70
2018-03-28T19:45:21.723Z,8.70
2018-03-28T19:50:24.254Z,8.80
2018-03-28T19:55:26.799Z,8.80
2018-03-28T20:00:29.333Z,8.80
2018-03-28T20:05:31.873Z,8.80
2018-03-28T20:10:34.424Z,8.80
2018-03-28T20:15:36.965Z,8.80
2018-03-28T20:20:39.516Z,8.90
2018-03-28T20:25:42.048Z,8.90
2018-03-28T20:30:45.338Z,8.90
2018-03-28T20:35:47.946Z,8.90
2018-03-28T20:40:50.446Z,8.90
2018-03-28T20:45:52.990Z,8.90
2018-03-28T20:50:55.514Z,9.00
2018-03-28T20:55:58.066Z,8.90
2018-03-28T21:01:00.589Z,8.90
2018-03-28T21:06:03.898Z,9.00
2018-03-28T21:11:06.442Z,9.00
2018-03-28T21:16:09.214Z,9.00
2018-03-28T21:21:11.742Z,9.00
2018-03-28T21:26:14.273Z,9.00
2018-03-28T21:31:16.814Z,9.00
2018-03-28T21:36:19.351Z,9.00
2018-03-28T21:41:21.884Z,9.10
2018-03-28T21:46:24.421Z,9.10
2018-03-28T21:51:26.970Z,9.10
2018-03-28T21:56:29.493Z,9.00
2018-03-28T22:01:32.044Z,9.00
2018-03-28T22:06:36.094Z,9.00
2018-03-28T22:11:38.634Z,9.00
2018-03-28T22:16:41.176Z,9.00
2018-03-28T22:21:44.453Z,9.00
2018-03-28T22:26:46.998Z,9.00
2018-03-28T22:31:50.305Z,9.00
2018-03-28T22:36:52.841Z,8.90
2018-03-28T22:41:55.374Z,8.90
2018-03-28T22:46:57.933Z,8.90
2018-03-28T22:52:00.465Z,8.90
2018-03-28T22:57:02.997Z,8.90
2018-03-28T23:02:05.534Z,8.90
2018-03-28T23:07:08.073Z,8.90
2018-03-28T23:12:10.598Z,8.80
2018-03-28T23:17:13.899Z,8.80
2018-03-28T23:22:28.355Z,8.80
2018-03-28T23:27:30.889Z,8.80
2018-03-28T23:32:34.190Z,8.70
2018-03-28T23:37:37.501Z,8.70
2018-03-28T23:42:40.046Z,8.70
2018-03-28T23:47:42.603Z,8.70
2018-03-28T23:52:45.138Z,8.70
2018-03-28T23:57:47.688Z,8.70
